sensor_id;sensor_type;location;lat;lon;timestamp;temperature;humidity
30134;DHT22;16946;49.984;10.672;2022-08-19T00:00:25;20.20;99.90
30134;DHT22;16946;49.984;10.672;2022-08-19T00:00:56;20.20;99.90
30134;DHT22;16946;49.984;10.672;2022-08-19T00:01:27;20.20;99.90
30134;DHT22;16946;49.984;10.672;2022-08-19T00:01:59;20.20;99.90
30134;DHT22;16946;49.984;10.672;2022-08-19T00:02:30;20.20;99.90
30134;DHT22;16946;49.984;10.672;2022-08-19T00:03:00;20.20;99.90
30134;DHT22;16946;49.984;10.672;2022-08-19T00:03:30;20.20;99.90
30134;DHT22;16946;49.984;10.672;2022-08-19T00:04:04;20.20;99.90
30134;DHT22;16946;49.984;10.672;2022-08-19T00:04:35;20.20;99.90
30134;DHT22;16946;49.984;10.672;2022-08-19T00:05:08;20.20;99.90
30134;DHT22;16946;49.984;10.672;2022-08-19T00:05:39;20.20;99.90
30134;DHT22;16946;49.984;10.672;2022-08-19T00:06:12;20.20;99.90
30134;DHT22;16946;49.984;10.672;2022-08-19T00:06:44;20.20;99.90
30134;DHT22;16946;49.984;10.672;2022-08-19T00:07:15;20.20;99.90
30134;DHT22;16946;49.984;10.672;2022-08-19T00:07:46;20.20;99.90
30134;DHT22;16946;49.984;10.672;2022-08-19T00:08:16;20.20;99.90
30134;DHT22;16946;49.984;10.672;2022-08-19T00:08:47;20.20;99.90
30134;DHT22;16946;49.984;10.672;2022-08-19T00:09:19;20.30;99.90
30134;DHT22;16946;49.984;10.672;2022-08-19T00:09:50;20.30;99.90
30134;DHT22;16946;49.984;10.672;2022-08-19T00:10:21;20.30;99.90
30134;DHT22;16946;49.984;10.672;2022-08-19T00:10:51;20.40;99.90
30134;DHT22;16946;49.984;10.672;2022-08-19T00:11:22;20.40;99.90
30134;DHT22;16946;49.984;10.672;2022-08-19T00:11:54;20.40;99.90
30134;DHT22;16946;49.984;10.672;2022-08-19T00:12:26;20.40;99.90
30134;DHT22;16946;49.984;10.672;2022-08-19T00:12:56;20.50;99.90
30134;DHT22;16946;49.984;10.672;2022-08-19T00:13:27;20.50;99.90
30134;DHT22;16946;49.984;10.672;2022-08-19T00:13:58;20.40;99.90
30134;DHT22;16946;49.984;10.672;2022-08-19T00:14:29;20.60;99.90
30134;DHT22;16946;49.984;10.672;2022-08-19T00:15:07;20.50;99.90
30134;DHT22;16946;49.984;10.672;2022-08-19T00:15:41;20.50;99.90
30134;DHT22;16946;49.984;10.672;2022-08-19T00:16:16;20.60;99.90
30134;DHT22;16946;49.984;10.672;2022-08-19T00:16:48;20.60;99.90
30134;DHT22;16946;49.984;10.672;2022-08-19T00:17:20;20.60;99.90
30134;DHT22;16946;49.984;10.672;2022-08-19T00:17:50;20.60;99.90
30134;DHT22;16946;49.984;10.672;2022-08-19T00:18:21;20.70;99.90
30134;DHT22;16946;49.984;10.672;2022-08-19T00:18:52;20.70;99.90
30134;DHT22;16946;49.984;10.672;2022-08-19T00:19:23;20.70;99.90
30134;DHT22;16946;49.984;10.672;2022-08-19T00:19:54;20.70;99.90
30134;DHT22;16946;49.984;10.672;2022-08-19T00:20:24;20.70;99.90
30134;DHT22;16946;49.984;10.672;2022-08-19T00:20:56;20.80;99.90
30134;DHT22;16946;49.984;10.672;2022-08-19T00:21:27;20.80;99.90
30134;DHT22;16946;49.984;10.672;2022-08-19T00:21:58;20.80;99.90
30134;DHT22;16946;49.984;10.672;2022-08-19T00:22:28;20.80;99.90
30134;DHT22;16946;49.984;10.672;2022-08-19T00:22:59;20.80;99.90
30134;DHT22;16946;49.984;10.672;2022-08-19T00:23:29;20.90;99.90
30134;DHT22;16946;49.984;10.672;2022-08-19T00:24:00;20.90;99.90
30134;DHT22;16946;49.984;10.672;2022-08-19T00:24:31;20.80;99.90
30134;DHT22;16946;49.984;10.672;2022-08-19T00:25:03;20.80;99.90
30134;DHT22;16946;49.984;10.672;2022-08-19T00:25:33;20.70;99.90
30134;DHT22;16946;49.984;10.672;2022-08-19T00:26:05;20.60;99.90
30134;DHT22;16946;49.984;10.672;2022-08-19T00:26:36;20.50;99.90
30134;DHT22;16946;49.984;10.672;2022-08-19T00:27:07;20.40;99.90
30134;DHT22;16946;49.984;10.672;2022-08-19T00:27:38;20.30;99.90
30134;DHT22;16946;49.984;10.672;2022-08-19T00:28:08;20.20;99.90
30134;DHT22;16946;49.984;10.672;2022-08-19T00:28:39;20.20;99.90
30134;DHT22;16946;49.984;10.672;2022-08-19T00:29:12;20.20;99.90
30134;DHT22;16946;49.984;10.672;2022-08-19T00:29:43;20.20;99.90
30134;DHT22;16946;49.984;10.672;2022-08-19T00:30:14;20.20;99.90
30134;DHT22;16946;49.984;10.672;2022-08-19T00:30:44;20.20;99.90
30134;DHT22;16946;49.984;10.672;2022-08-19T00:31:15;20.30;99.90
30134;DHT22;16946;49.984;10.672;2022-08-19T00:31:46;20.30;99.90
30134;DHT22;16946;49.984;10.672;2022-08-19T00:32:17;20.30;99.90
30134;DHT22;16946;49.984;10.672;2022-08-19T00:32:47;20.30;99.90
30134;DHT22;16946;49.984;10.672;2022-08-19T00:33:18;20.40;99.90
30134;DHT22;16946;49.984;10.672;2022-08-19T00:33:49;20.40;99.90
30134;DHT22;16946;49.984;10.672;2022-08-19T00:34:21;20.40;99.90
30134;DHT22;16946;49.984;10.672;2022-08-19T00:34:52;20.40;99.90
30134;DHT22;16946;49.984;10.672;2022-08-19T00:35:23;20.40;99.90
30134;DHT22;16946;49.984;10.672;2022-08-19T00:35:55;20.50;99.90
30134;DHT22;16946;49.984;10.672;2022-08-19T00:36:25;20.50;99.90
30134;DHT22;16946;49.984;10.672;2022-08-19T00:36:56;20.50;99.90
30134;DHT22;16946;49.984;10.672;2022-08-19T00:37:27;20.50;99.90
30134;DHT22;16946;49.984;10.672;2022-08-19T00:37:58;20.50;99.90
30134;DHT22;16946;49.984;10.672;2022-08-19T00:38:29;20.50;99.90
30134;DHT22;16946;49.984;10.672;2022-08-19T00:39:01;20.50;99.90
30134;DHT22;16946;49.984;10.672;2022-08-19T00:39:31;20.50;99.90
30134;DHT22;16946;49.984;10.672;2022-08-19T00:40:04;20.50;99.90
30134;DHT22;16946;49.984;10.672;2022-08-19T00:40:34;20.50;99.90
30134;DHT22;16946;49.984;10.672;2022-08-19T00:41:06;20.50;99.90
30134;DHT22;16946;49.984;10.672;2022-08-19T00:41:36;20.60;99.90
30134;DHT22;16946;49.984;10.672;2022-08-19T00:42:07;20.60;99.90
30134;DHT22;16946;49.984;10.672;2022-08-19T00:42:37;20.60;99.90
30134;DHT22;16946;49.984;10.672;2022-08-19T00:43:10;20.70;99.90
30134;DHT22;16946;49.984;10.672;2022-08-19T00:43:41;20.70;99.90
30134;DHT22;16946;49.984;10.672;2022-08-19T00:44:14;20.60;99.90
30134;DHT22;16946;49.984;10.672;2022-08-19T00:44:46;20.60;99.90
30134;DHT22;16946;49.984;10.672;2022-08-19T00:45:19;20.50;99.90
30134;DHT22;16946;49.984;10.672;2022-08-19T00:45:50;20.40;99.90
30134;DHT22;16946;49.984;10.672;2022-08-19T00:46:21;20.40;99.90
30134;DHT22;16946;49.984;10.672;2022-08-19T00:46:54;20.40;99.90
30134;DHT22;16946;49.984;10.672;2022-08-19T00:47:24;20.30;99.90
30134;DHT22;16946;49.984;10.672;2022-08-19T00:47:55;20.20;99.90
30134;DHT22;16946;49.984;10.672;2022-08-19T00:48:25;20.30;99.90
30134;DHT22;16946;49.984;10.672;2022-08-19T00:48:57;20.20;99.90
30134;DHT22;16946;49.984;10.672;2022-08-19T00:49:32;20.30;99.90
30134;DHT22;16946;49.984;10.672;2022-08-19T00:50:05;20.20;99.90
30134;DHT22;16946;49.984;10.672;2022-08-19T00:50:40;20.20;99.90
30134;DHT22;16946;49.984;10.672;2022-08-19T00:51:13;20.20;99.90
30134;DHT22;16946;49.984;10.672;2022-08-19T00:51:46;20.10;99.90
30134;DHT22;16946;49.984;10.672;2022-08-19T00:52:29;20.00;99.90
30134;DHT22;16946;49.984;10.672;2022-08-19T00:53:02;20.00;99.90
30134;DHT22;16946;49.984;10.672;2022-08-19T00:53:34;20.00;99.90
30134;DHT22;16946;49.984;10.672;2022-08-19T00:54:05;20.00;99.90
30134;DHT22;16946;49.984;10.672;2022-08-19T00:54:38;20.00;99.90
30134;DHT22;16946;49.984;10.672;2022-08-19T00:55:09;20.00;99.90
30134;DHT22;16946;49.984;10.672;2022-08-19T00:55:42;20.10;99.90
30134;DHT22;16946;49.984;10.672;2022-08-19T00:56:14;20.10;99.90
30134;DHT22;16946;49.984;10.672;2022-08-19T00:56:46;20.10;99.90
30134;DHT22;16946;49.984;10.672;2022-08-19T00:57:19;20.10;99.90
30134;DHT22;16946;49.984;10.672;2022-08-19T00:57:56;20.10;99.90
30134;DHT22;16946;49.984;10.672;2022-08-19T00:58:31;20.20;99.90
30134;DHT22;16946;49.984;10.672;2022-08-19T00:59:04;20.20;99.90
30134;DHT22;16946;49.984;10.672;2022-08-19T00:59:40;20.20;99.90
30134;DHT22;16946;49.984;10.672;2022-08-19T01:00:15;20.20;99.90
30134;DHT22;16946;49.984;10.672;2022-08-19T01:00:46;20.10;99.90
30134;DHT22;16946;49.984;10.672;2022-08-19T01:01:17;20.20;99.90
30134;DHT22;16946;49.984;10.672;2022-08-19T01:01:48;20.20;99.90
30134;DHT22;16946;49.984;10.672;2022-08-19T01:02:19;20.20;99.90
30134;DHT22;16946;49.984;10.672;2022-08-19T01:02:50;20.20;99.90
30134;DHT22;16946;49.984;10.672;2022-08-19T01:03:22;20.20;99.90
30134;DHT22;16946;49.984;10.672;2022-08-19T01:03:53;20.10;99.90
30134;DHT22;16946;49.984;10.672;2022-08-19T01:04:24;20.10;99.90
30134;DHT22;16946;49.984;10.672;2022-08-19T01:04:55;20.00;99.90
30134;DHT22;16946;49.984;10.672;2022-08-19T01:05:28;19.90;99.90
30134;DHT22;16946;49.984;10.672;2022-08-19T01:05:59;19.90;99.90
30134;DHT22;16946;49.984;10.672;2022-08-19T01:06:31;19.90;99.90
30134;DHT22;16946;49.984;10.672;2022-08-19T01:07:02;19.90;99.90
30134;DHT22;16946;49.984;10.672;2022-08-19T01:07:34;19.90;99.90
30134;DHT22;16946;49.984;10.672;2022-08-19T01:08:06;19.90;99.90
30134;DHT22;16946;49.984;10.672;2022-08-19T01:08:37;19.90;99.90
30134;DHT22;16946;49.984;10.672;2022-08-19T01:09:08;19.80;99.90
30134;DHT22;16946;49.984;10.672;2022-08-19T01:09:39;19.80;99.90
30134;DHT22;16946;49.984;10.672;2022-08-19T01:10:12;19.80;99.90
30134;DHT22;16946;49.984;10.672;2022-08-19T01:10:53;19.90;99.90
30134;DHT22;16946;49.984;10.672;2022-08-19T01:11:25;19.80;99.90
30134;DHT22;16946;49.984;10.672;2022-08-19T01:11:56;19.90;99.90
30134;DHT22;16946;49.984;10.672;2022-08-19T01:12:27;19.90;99.90
30134;DHT22;16946;49.984;10.672;2022-08-19T01:12:59;19.90;99.90
30134;DHT22;16946;49.984;10.672;2022-08-19T01:13:33;20.00;99.90
30134;DHT22;16946;49.984;10.672;2022-08-19T01:14:04;20.00;99.90
30134;DHT22;16946;49.984;10.672;2022-08-19T01:14:37;20.00;99.90
30134;DHT22;16946;49.984;10.672;2022-08-19T01:15:11;20.00;99.90
30134;DHT22;16946;49.984;10.672;2022-08-19T01:15:48;20.00;99.90
30134;DHT22;16946;49.984;10.672;2022-08-19T01:16:22;20.00;99.90
30134;DHT22;16946;49.984;10.672;2022-08-19T01:16:55;20.00;99.90
30134;DHT22;16946;49.984;10.672;2022-08-19T01:17:27;20.00;99.90
30134;DHT22;16946;49.984;10.672;2022-08-19T01:18:02;20.10;99.90
30134;DHT22;16946;49.984;10.672;2022-08-19T01:18:39;20.10;99.90
30134;DHT22;16946;49.984;10.672;2022-08-19T01:19:19;20.10;99.90
30134;DHT22;16946;49.984;10.672;2022-08-19T01:19:52;20.10;99.90
30134;DHT22;16946;49.984;10.672;2022-08-19T01:20:24;20.20;99.90
30134;DHT22;16946;49.984;10.672;2022-08-19T01:20:57;20.10;99.90
30134;DHT22;16946;49.984;10.672;2022-08-19T01:21:38;20.10;99.90
30134;DHT22;16946;49.984;10.672;2022-08-19T01:22:57;20.10;99.90
30134;DHT22;16946;49.984;10.672;2022-08-19T01:23:28;20.00;99.90
30134;DHT22;16946;49.984;10.672;2022-08-19T01:24:12;20.00;99.90
30134;DHT22;16946;49.984;10.672;2022-08-19T01:24:43;19.90;99.90
30134;DHT22;16946;49.984;10.672;2022-08-19T01:25:15;19.80;99.90
30134;DHT22;16946;49.984;10.672;2022-08-19T01:25:52;19.80;99.90
30134;DHT22;16946;49.984;10.672;2022-08-19T01:26:24;19.80;99.90
30134;DHT22;16946;49.984;10.672;2022-08-19T01:26:55;19.80;99.90
30134;DHT22;16946;49.984;10.672;2022-08-19T01:27:25;19.80;99.90
30134;DHT22;16946;49.984;10.672;2022-08-19T01:27:56;19.90;99.90
30134;DHT22;16946;49.984;10.672;2022-08-19T01:28:27;19.90;99.90
30134;DHT22;16946;49.984;10.672;2022-08-19T01:28:59;19.90;99.90
30134;DHT22;16946;49.984;10.672;2022-08-19T01:29:31;19.90;99.90
30134;DHT22;16946;49.984;10.672;2022-08-19T01:30:03;19.90;99.90
30134;DHT22;16946;49.984;10.672;2022-08-19T01:30:35;19.90;99.90
30134;DHT22;16946;49.984;10.672;2022-08-19T01:31:13;20.00;99.90
30134;DHT22;16946;49.984;10.672;2022-08-19T01:31:44;19.90;99.90
30134;DHT22;16946;49.984;10.672;2022-08-19T01:32:16;20.00;99.90
30134;DHT22;16946;49.984;10.672;2022-08-19T01:32:47;20.00;99.90
30134;DHT22;16946;49.984;10.672;2022-08-19T01:33:18;20.00;99.90
30134;DHT22;16946;49.984;10.672;2022-08-19T01:33:51;19.90;99.90
30134;DHT22;16946;49.984;10.672;2022-08-19T01:34:21;19.90;99.90
30134;DHT22;16946;49.984;10.672;2022-08-19T01:34:52;19.90;99.90
30134;DHT22;16946;49.984;10.672;2022-08-19T01:35:24;19.90;99.90
30134;DHT22;16946;49.984;10.672;2022-08-19T01:36:15;19.90;99.90
30134;DHT22;16946;49.984;10.672;2022-08-19T01:36:47;19.90;99.90
30134;DHT22;16946;49.984;10.672;2022-08-19T01:37:19;19.80;99.90
30134;DHT22;16946;49.984;10.672;2022-08-19T01:38:25;19.80;99.90
30134;DHT22;16946;49.984;10.672;2022-08-19T01:38:57;19.80;99.90
30134;DHT22;16946;49.984;10.672;2022-08-19T01:39:28;19.80;99.90
30134;DHT22;16946;49.984;10.672;2022-08-19T01:39:58;19.70;99.90
30134;DHT22;16946;49.984;10.672;2022-08-19T01:40:31;19.70;99.90
30134;DHT22;16946;49.984;10.672;2022-08-19T01:41:03;19.70;99.90
30134;DHT22;16946;49.984;10.672;2022-08-19T01:41:33;19.70;99.90
30134;DHT22;16946;49.984;10.672;2022-08-19T01:42:05;19.70;99.90
30134;DHT22;16946;49.984;10.672;2022-08-19T01:42:37;19.70;99.90
30134;DHT22;16946;49.984;10.672;2022-08-19T01:43:08;19.60;99.90
30134;DHT22;16946;49.984;10.672;2022-08-19T01:43:39;19.60;99.90
30134;DHT22;16946;49.984;10.672;2022-08-19T01:44:10;19.60;99.90
30134;DHT22;16946;49.984;10.672;2022-08-19T01:44:41;19.60;99.90
30134;DHT22;16946;49.984;10.672;2022-08-19T01:45:11;19.50;99.90
30134;DHT22;16946;49.984;10.672;2022-08-19T01:45:42;19.50;99.90
30134;DHT22;16946;49.984;10.672;2022-08-19T01:46:12;19.50;99.90
30134;DHT22;16946;49.984;10.672;2022-08-19T01:46:43;19.60;99.90
30134;DHT22;16946;49.984;10.672;2022-08-19T01:47:14;19.60;99.90
30134;DHT22;16946;49.984;10.672;2022-08-19T01:47:47;19.60;99.90
30134;DHT22;16946;49.984;10.672;2022-08-19T01:48:17;19.60;99.90
30134;DHT22;16946;49.984;10.672;2022-08-19T01:48:48;19.60;99.90
30134;DHT22;16946;49.984;10.672;2022-08-19T01:49:21;19.60;99.90
30134;DHT22;16946;49.984;10.672;2022-08-19T01:49:51;19.60;99.90
30134;DHT22;16946;49.984;10.672;2022-08-19T01:50:22;19.70;99.90
30134;DHT22;16946;49.984;10.672;2022-08-19T01:50:53;19.70;99.90
30134;DHT22;16946;49.984;10.672;2022-08-19T01:51:24;19.70;99.90
30134;DHT22;16946;49.984;10.672;2022-08-19T01:51:54;19.70;99.90
30134;DHT22;16946;49.984;10.672;2022-08-19T01:52:25;19.80;99.90
30134;DHT22;16946;49.984;10.672;2022-08-19T01:52:55;19.80;99.90
30134;DHT22;16946;49.984;10.672;2022-08-19T01:53:26;19.90;99.90
30134;DHT22;16946;49.984;10.672;2022-08-19T01:53:57;19.90;99.90
30134;DHT22;16946;49.984;10.672;2022-08-19T01:54:28;19.90;99.90
30134;DHT22;16946;49.984;10.672;2022-08-19T01:54:58;19.90;99.90
30134;DHT22;16946;49.984;10.672;2022-08-19T01:55:29;19.90;99.90
30134;DHT22;16946;49.984;10.672;2022-08-19T01:56:00;20.00;99.90
30134;DHT22;16946;49.984;10.672;2022-08-19T01:56:31;20.00;99.90
30134;DHT22;16946;49.984;10.672;2022-08-19T01:57:06;20.10;99.90
30134;DHT22;16946;49.984;10.672;2022-08-19T01:57:39;20.10;99.90
30134;DHT22;16946;49.984;10.672;2022-08-19T01:58:18;20.10;99.90
30134;DHT22;16946;49.984;10.672;2022-08-19T01:58:58;20.10;99.90
30134;DHT22;16946;49.984;10.672;2022-08-19T01:59:31;20.10;99.90
30134;DHT22;16946;49.984;10.672;2022-08-19T02:00:06;20.10;99.90
30134;DHT22;16946;49.984;10.672;2022-08-19T02:00:37;20.20;99.90
30134;DHT22;16946;49.984;10.672;2022-08-19T02:01:08;20.10;99.90
30134;DHT22;16946;49.984;10.672;2022-08-19T02:01:39;20.10;99.90
30134;DHT22;16946;49.984;10.672;2022-08-19T02:02:09;20.00;99.90
30134;DHT22;16946;49.984;10.672;2022-08-19T02:02:40;20.00;99.90
30134;DHT22;16946;49.984;10.672;2022-08-19T02:03:11;20.00;99.90
30134;DHT22;16946;49.984;10.672;2022-08-19T02:03:42;19.90;99.90
30134;DHT22;16946;49.984;10.672;2022-08-19T02:04:13;19.90;99.90
30134;DHT22;16946;49.984;10.672;2022-08-19T02:04:43;19.90;99.90
30134;DHT22;16946;49.984;10.672;2022-08-19T02:05:16;19.90;99.90
30134;DHT22;16946;49.984;10.672;2022-08-19T02:05:52;19.90;99.90
30134;DHT22;16946;49.984;10.672;2022-08-19T02:06:23;19.90;99.90
30134;DHT22;16946;49.984;10.672;2022-08-19T02:06:54;19.80;99.90
30134;DHT22;16946;49.984;10.672;2022-08-19T02:07:24;19.90;99.90
30134;DHT22;16946;49.984;10.672;2022-08-19T02:07:58;19.80;99.90
30134;DHT22;16946;49.984;10.672;2022-08-19T02:08:30;19.90;99.90
30134;DHT22;16946;49.984;10.672;2022-08-19T02:09:02;19.90;99.90
30134;DHT22;16946;49.984;10.672;2022-08-19T02:09:34;19.90;99.90
30134;DHT22;16946;49.984;10.672;2022-08-19T02:10:07;19.90;99.90
30134;DHT22;16946;49.984;10.672;2022-08-19T02:10:43;19.90;99.90
30134;DHT22;16946;49.984;10.672;2022-08-19T02:11:23;20.00;99.90
30134;DHT22;16946;49.984;10.672;2022-08-19T02:11:56;20.00;99.90
30134;DHT22;16946;49.984;10.672;2022-08-19T02:12:27;20.00;99.90
30134;DHT22;16946;49.984;10.672;2022-08-19T02:12:58;20.00;99.90
30134;DHT22;16946;49.984;10.672;2022-08-19T02:13:29;20.00;99.90
30134;DHT22;16946;49.984;10.672;2022-08-19T02:14:01;20.00;99.90
30134;DHT22;16946;49.984;10.672;2022-08-19T02:14:34;20.00;99.90
30134;DHT22;16946;49.984;10.672;2022-08-19T02:15:05;20.00;99.90
30134;DHT22;16946;49.984;10.672;2022-08-19T02:15:37;20.00;99.90
30134;DHT22;16946;49.984;10.672;2022-08-19T02:16:07;20.00;99.90
30134;DHT22;16946;49.984;10.672;2022-08-19T02:16:38;20.00;99.90
30134;DHT22;16946;49.984;10.672;2022-08-19T02:17:10;20.00;99.90
30134;DHT22;16946;49.984;10.672;2022-08-19T02:17:40;20.00;99.90
30134;DHT22;16946;49.984;10.672;2022-08-19T02:18:11;20.10;99.90
30134;DHT22;16946;49.984;10.672;2022-08-19T02:18:42;20.10;99.90
30134;DHT22;16946;49.984;10.672;2022-08-19T02:19:13;20.10;99.90
30134;DHT22;16946;49.984;10.672;2022-08-19T02:19:43;20.10;99.90
30134;DHT22;16946;49.984;10.672;2022-08-19T02:20:14;20.10;99.90
30134;DHT22;16946;49.984;10.672;2022-08-19T02:20:45;20.10;99.90
30134;DHT22;16946;49.984;10.672;2022-08-19T02:21:19;20.10;99.90
30134;DHT22;16946;49.984;10.672;2022-08-19T02:21:50;20.10;99.90
30134;DHT22;16946;49.984;10.672;2022-08-19T02:22:21;20.10;99.90
30134;DHT22;16946;49.984;10.672;2022-08-19T02:22:51;20.10;99.90
30134;DHT22;16946;49.984;10.672;2022-08-19T02:23:22;20.10;99.90
30134;DHT22;16946;49.984;10.672;2022-08-19T02:23:53;20.10;99.90
30134;DHT22;16946;49.984;10.672;2022-08-19T02:24:24;20.10;99.90
30134;DHT22;16946;49.984;10.672;2022-08-19T02:24:55;20.00;99.90
30134;DHT22;16946;49.984;10.672;2022-08-19T02:25:25;20.00;99.90
30134;DHT22;16946;49.984;10.672;2022-08-19T02:25:56;20.00;99.90
30134;DHT22;16946;49.984;10.672;2022-08-19T02:26:26;20.00;99.90
30134;DHT22;16946;49.984;10.672;2022-08-19T02:26:57;20.00;99.90
30134;DHT22;16946;49.984;10.672;2022-08-19T02:27:28;20.00;99.90
30134;DHT22;16946;49.984;10.672;2022-08-19T02:27:59;20.00;99.90
30134;DHT22;16946;49.984;10.672;2022-08-19T02:28:29;20.00;99.90
30134;DHT22;16946;49.984;10.672;2022-08-19T02:29:00;20.00;99.90
30134;DHT22;16946;49.984;10.672;2022-08-19T02:29:31;20.10;99.90
30134;DHT22;16946;49.984;10.672;2022-08-19T02:30:05;20.10;99.90
30134;DHT22;16946;49.984;10.672;2022-08-19T02:30:37;20.20;99.90
30134;DHT22;16946;49.984;10.672;2022-08-19T02:31:14;20.20;99.90
30134;DHT22;16946;49.984;10.672;2022-08-19T02:31:46;20.20;99.90
30134;DHT22;16946;49.984;10.672;2022-08-19T02:32:17;20.20;99.90
30134;DHT22;16946;49.984;10.672;2022-08-19T02:32:49;20.20;99.90
30134;DHT22;16946;49.984;10.672;2022-08-19T02:33:21;20.30;99.90
30134;DHT22;16946;49.984;10.672;2022-08-19T02:33:52;20.30;99.90
30134;DHT22;16946;49.984;10.672;2022-08-19T02:34:23;20.30;99.90
30134;DHT22;16946;49.984;10.672;2022-08-19T02:34:55;20.30;99.90
30134;DHT22;16946;49.984;10.672;2022-08-19T02:35:25;20.30;99.90
30134;DHT22;16946;49.984;10.672;2022-08-19T02:35:56;20.30;99.90
30134;DHT22;16946;49.984;10.672;2022-08-19T02:36:27;20.30;99.90
30134;DHT22;16946;49.984;10.672;2022-08-19T02:36:58;20.30;99.90
30134;DHT22;16946;49.984;10.672;2022-08-19T02:37:28;20.30;99.90
30134;DHT22;16946;49.984;10.672;2022-08-19T02:38:17;20.30;99.90
30134;DHT22;16946;49.984;10.672;2022-08-19T02:38:57;20.20;99.90
30134;DHT22;16946;49.984;10.672;2022-08-19T02:39:27;20.10;99.90
30134;DHT22;16946;49.984;10.672;2022-08-19T02:39:58;20.10;99.90
30134;DHT22;16946;49.984;10.672;2022-08-19T02:40:30;20.10;99.90
30134;DHT22;16946;49.984;10.672;2022-08-19T02:41:16;20.10;99.90
30134;DHT22;16946;49.984;10.672;2022-08-19T02:41:47;20.10;99.90
30134;DHT22;16946;49.984;10.672;2022-08-19T02:42:17;20.10;99.90
30134;DHT22;16946;49.984;10.672;2022-08-19T02:42:48;20.10;99.90
30134;DHT22;16946;49.984;10.672;2022-08-19T02:43:19;20.10;99.90
30134;DHT22;16946;49.984;10.672;2022-08-19T02:43:50;20.20;99.90
30134;DHT22;16946;49.984;10.672;2022-08-19T02:44:21;20.20;99.90
30134;DHT22;16946;49.984;10.672;2022-08-19T02:44:51;20.20;99.90
30134;DHT22;16946;49.984;10.672;2022-08-19T02:45:22;20.20;99.90
30134;DHT22;16946;49.984;10.672;2022-08-19T02:45:53;20.20;99.90
30134;DHT22;16946;49.984;10.672;2022-08-19T02:46:27;20.20;99.90
30134;DHT22;16946;49.984;10.672;2022-08-19T02:46:58;20.20;99.90
30134;DHT22;16946;49.984;10.672;2022-08-19T02:47:29;20.20;99.90
30134;DHT22;16946;49.984;10.672;2022-08-19T02:48:00;20.20;99.90
30134;DHT22;16946;49.984;10.672;2022-08-19T02:48:30;20.20;99.90
30134;DHT22;16946;49.984;10.672;2022-08-19T02:49:06;20.20;99.90
30134;DHT22;16946;49.984;10.672;2022-08-19T02:49:37;20.20;99.90
30134;DHT22;16946;49.984;10.672;2022-08-19T02:50:08;20.20;99.90
30134;DHT22;16946;49.984;10.672;2022-08-19T02:50:39;20.20;99.90
30134;DHT22;16946;49.984;10.672;2022-08-19T02:51:16;20.20;99.90
30134;DHT22;16946;49.984;10.672;2022-08-19T02:51:47;20.20;99.90
30134;DHT22;16946;49.984;10.672;2022-08-19T02:52:17;20.30;99.90
30134;DHT22;16946;49.984;10.672;2022-08-19T02:52:48;20.30;99.90
30134;DHT22;16946;49.984;10.672;2022-08-19T02:53:18;20.30;99.90
30134;DHT22;16946;49.984;10.672;2022-08-19T02:53:49;20.30;99.90
30134;DHT22;16946;49.984;10.672;2022-08-19T02:54:20;20.30;99.90
30134;DHT22;16946;49.984;10.672;2022-08-19T02:54:50;20.40;99.90
30134;DHT22;16946;49.984;10.672;2022-08-19T02:55:21;20.50;99.90
30134;DHT22;16946;49.984;10.672;2022-08-19T02:55:52;20.50;99.90
30134;DHT22;16946;49.984;10.672;2022-08-19T02:56:23;20.50;99.90
30134;DHT22;16946;49.984;10.672;2022-08-19T02:56:55;20.50;99.90
30134;DHT22;16946;49.984;10.672;2022-08-19T02:57:27;20.50;99.90
30134;DHT22;16946;49.984;10.672;2022-08-19T02:57:57;20.60;99.90
30134;DHT22;16946;49.984;10.672;2022-08-19T02:58:28;20.50;99.90
30134;DHT22;16946;49.984;10.672;2022-08-19T02:58:59;20.60;99.90
30134;DHT22;16946;49.984;10.672;2022-08-19T02:59:30;20.60;99.90
30134;DHT22;16946;49.984;10.672;2022-08-19T03:00:03;20.60;99.90
30134;DHT22;16946;49.984;10.672;2022-08-19T03:00:34;20.50;99.90
30134;DHT22;16946;49.984;10.672;2022-08-19T03:01:04;20.50;99.90
30134;DHT22;16946;49.984;10.672;2022-08-19T03:01:35;20.50;99.90
30134;DHT22;16946;49.984;10.672;2022-08-19T03:02:05;20.50;99.90
30134;DHT22;16946;49.984;10.672;2022-08-19T03:02:36;20.50;99.90
30134;DHT22;16946;49.984;10.672;2022-08-19T03:03:06;20.50;99.90
30134;DHT22;16946;49.984;10.672;2022-08-19T03:03:37;20.50;99.90
30134;DHT22;16946;49.984;10.672;2022-08-19T03:04:10;20.50;99.90
30134;DHT22;16946;49.984;10.672;2022-08-19T03:04:40;20.50;99.90
30134;DHT22;16946;49.984;10.672;2022-08-19T03:05:11;20.60;99.90
30134;DHT22;16946;49.984;10.672;2022-08-19T03:05:43;20.70;99.90
30134;DHT22;16946;49.984;10.672;2022-08-19T03:06:14;20.60;99.90
30134;DHT22;16946;49.984;10.672;2022-08-19T03:06:47;20.60;99.90
30134;DHT22;16946;49.984;10.672;2022-08-19T03:07:18;20.70;99.90
30134;DHT22;16946;49.984;10.672;2022-08-19T03:07:48;20.70;99.90
30134;DHT22;16946;49.984;10.672;2022-08-19T03:08:19;20.60;99.90
30134;DHT22;16946;49.984;10.672;2022-08-19T03:08:50;20.60;99.90
30134;DHT22;16946;49.984;10.672;2022-08-19T03:09:21;20.60;99.90
30134;DHT22;16946;49.984;10.672;2022-08-19T03:09:51;20.60;99.90
30134;DHT22;16946;49.984;10.672;2022-08-19T03:10:22;20.60;99.90
30134;DHT22;16946;49.984;10.672;2022-08-19T03:10:53;20.70;99.90
30134;DHT22;16946;49.984;10.672;2022-08-19T03:11:28;20.70;99.90
30134;DHT22;16946;49.984;10.672;2022-08-19T03:11:59;20.70;99.90
30134;DHT22;16946;49.984;10.672;2022-08-19T03:12:30;20.70;99.90
30134;DHT22;16946;49.984;10.672;2022-08-19T03:13:00;20.70;99.90
30134;DHT22;16946;49.984;10.672;2022-08-19T03:13:31;20.70;99.90
30134;DHT22;16946;49.984;10.672;2022-08-19T03:14:04;20.60;99.90
30134;DHT22;16946;49.984;10.672;2022-08-19T03:14:35;20.60;99.90
30134;DHT22;16946;49.984;10.672;2022-08-19T03:15:07;20.50;99.90
30134;DHT22;16946;49.984;10.672;2022-08-19T03:15:43;20.50;99.90
30134;DHT22;16946;49.984;10.672;2022-08-19T03:16:13;20.50;99.90
30134;DHT22;16946;49.984;10.672;2022-08-19T03:16:50;20.50;99.90
30134;DHT22;16946;49.984;10.672;2022-08-19T03:17:20;20.50;99.90
30134;DHT22;16946;49.984;10.672;2022-08-19T03:17:51;20.50;99.90
30134;DHT22;16946;49.984;10.672;2022-08-19T03:18:22;20.50;99.90
30134;DHT22;16946;49.984;10.672;2022-08-19T03:18:53;20.50;99.90
30134;DHT22;16946;49.984;10.672;2022-08-19T03:19:24;20.50;99.90
30134;DHT22;16946;49.984;10.672;2022-08-19T03:19:54;20.50;99.90